Time;durP1;ratioP1;P1;durP2;ratioP2;P2;SDS_P1;SDS_P2;PMS_P1;PMS_P2;Temp;Humidity;BMP_temperature;BMP_pressure;BME280_temperature;BME280_humidity;BME280_pressure;Samples;Min_cycle;Max_cycle;Signal;HPM_P1;HPM_P2
2023/09/12 00:00:50;;;;;;;10.98;7.75;;;;;;;22.90;72.42;100636.59;4900011;29;20056;-73
2023/09/12 00:03:20;;;;;;;11.30;7.93;;;;;;;22.89;72.65;100629.41;4900281;29;20048;-74
2023/09/12 00:05:53;;;;;;;10.23;7.85;;;;;;;22.74;73.33;100637.44;4899261;29;20064;-74
2023/09/12 00:08:22;;;;;;;14.75;7.68;;;;;;;22.65;73.80;100628.44;4899348;29;20055;-74
2023/09/12 00:11:10;;;;;;;12.45;8.15;;;;;;;22.59;73.42;100633.50;4883338;29;20061;-73
2023/09/12 00:13:40;;;;;;;12.63;8.73;;;;;;;22.64;73.55;100638.00;4898981;29;20040;-73
2023/09/12 00:16:11;;;;;;;11.20;7.25;;;;;;;22.61;73.38;100628.38;4891501;29;20079;-74
2023/09/12 00:18:40;;;;;;;9.93;8.05;;;;;;;22.55;73.45;100624.22;4899902;29;20060;-74
2023/09/12 00:21:08;;;;;;;10.07;8.23;;;;;;;22.61;73.75;100627.53;4882554;29;20060;-74
2023/09/12 00:23:36;;;;;;;9.73;7.82;;;;;;;22.52;74.87;100634.13;4899403;29;20053;-74
2023/09/12 00:26:04;;;;;;;12.57;8.07;;;;;;;22.42;76.41;100623.47;4900040;29;20391;-73
2023/09/12 00:28:34;;;;;;;11.20;8.13;;;;;;;22.45;75.34;100627.53;4899424;29;20400;-73
2023/09/12 00:31:02;;;;;;;12.57;9.30;;;;;;;22.42;75.47;100627.09;4883107;29;20072;-73
2023/09/12 00:33:30;;;;;;;13.65;9.77;;;;;;;22.32;75.63;100626.81;4898551;29;20064;-74
2023/09/12 00:35:58;;;;;;;12.23;8.98;;;;;;;22.33;75.53;100623.66;4896740;29;20407;-73
2023/09/12 00:38:26;;;;;;;12.15;9.07;;;;;;;22.14;76.22;100618.81;4899855;29;20051;-73
2023/09/12 00:40:54;;;;;;;12.45;9.63;;;;;;;22.10;76.67;100615.13;4904957;29;20418;-73
2023/09/12 00:43:22;;;;;;;14.35;8.95;;;;;;;21.98;76.40;100621.56;4901754;29;20047;-74
2023/09/12 00:45:50;;;;;;;14.23;9.02;;;;;;;21.96;78.13;100618.34;4912305;29;20538;-73
2023/09/12 00:48:21;;;;;;;13.55;9.70;;;;;;;21.96;76.99;100621.13;4880135;29;20669;-73
2023/09/12 00:50:52;;;;;;;11.73;9.65;;;;;;;21.98;77.66;100614.03;4882238;29;20061;-73
2023/09/12 00:53:21;;;;;;;12.77;8.90;;;;;;;22.04;76.68;100616.56;4898837;29;20053;-73
2023/09/12 00:55:56;;;;;;;11.75;8.32;;;;;;;21.99;77.17;100615.66;4899083;29;20049;-73
2023/09/12 00:58:25;;;;;;;13.73;9.30;;;;;;;21.91;77.67;100613.03;4899184;29;20366;-73
2023/09/12 01:00:54;;;;;;;11.40;8.70;;;;;;;21.91;77.25;100610.25;4881412;29;20488;-74
2023/09/12 01:03:22;;;;;;;16.95;8.98;;;;;;;22.02;75.88;100617.75;4898911;29;20061;-73
2023/09/12 01:05:50;;;;;;;11.48;8.88;;;;;;;22.23;75.27;100613.88;4899138;29;20059;-74
2023/09/12 01:08:19;;;;;;;12.63;9.07;;;;;;;22.20;75.48;100613.78;4898601;29;20055;-73
2023/09/12 01:10:49;;;;;;;10.57;8.57;;;;;;;22.12;75.53;100613.59;4898100;29;20056;-74
2023/09/12 01:13:17;;;;;;;10.65;8.27;;;;;;;22.07;75.08;100616.66;4882136;29;20053;-74
2023/09/12 01:15:45;;;;;;;11.40;9.13;;;;;;;22.06;75.69;100608.66;4897907;29;20057;-73
2023/09/12 01:18:13;;;;;;;12.68;8.07;;;;;;;22.11;75.33;100608.38;4881280;29;20052;-73
2023/09/12 01:20:57;;;;;;;10.45;8.73;;;;;;;22.09;75.28;100614.31;4880966;29;20049;-73
2023/09/12 01:23:53;;;;;;;12.90;9.20;;;;;;;22.04;75.84;100619.34;4893383;29;20052;-73
2023/09/12 01:26:58;;;;;;;12.25;7.65;;;;;;;21.94;76.60;100612.34;4892247;29;20067;-73
2023/09/12 01:29:26;;;;;;;;;;;;;;;21.97;77.14;100618.00;4891331;29;20059;-73
2023/09/12 01:31:55;;;;;;;11.20;8.70;;;;;;;21.83;77.17;100612.03;4898807;29;19927;-73
2023/09/12 01:34:23;;;;;;;11.43;8.02;;;;;;;21.87;78.09;100624.09;4897409;29;20060;-73
2023/09/12 01:36:51;;;;;;;13.00;9.02;;;;;;;21.82;78.24;100618.75;4898793;29;20511;-73
2023/09/12 01:39:19;;;;;;;11.00;8.50;;;;;;;21.82;78.43;100618.75;4881805;29;20045;-73
2023/09/12 01:41:49;;;;;;;13.20;9.65;;;;;;;21.71;79.71;100616.50;4898614;29;20045;-73
2023/09/12 01:44:18;;;;;;;16.30;9.90;;;;;;;21.67;80.25;100615.56;4898430;29;20492;-73
2023/09/12 01:46:49;;;;;;;13.02;9.07;;;;;;;21.84;78.17;100605.28;4898286;29;20047;-73
2023/09/12 01:49:21;;;;;;;14.00;9.32;;;;;;;21.85;77.77;100609.72;4897684;29;20052;-73
2023/09/12 01:51:50;;;;;;;13.07;8.95;;;;;;;21.75;78.53;100606.25;4897231;29;20056;-73
2023/09/12 01:54:20;;;;;;;13.65;9.77;;;;;;;21.87;77.48;100612.94;4897420;29;20146;-73
2023/09/12 01:56:50;;;;;;;10.95;9.10;;;;;;;21.79;78.30;100608.34;4897447;29;20056;-73
2023/09/12 01:59:19;;;;;;;11.50;9.70;;;;;;;21.75;78.90;100611.00;4880590;29;20068;-74
2023/09/12 02:01:47;;;;;;;12.65;9.02;;;;;;;21.79;78.50;100605.56;4880629;29;20052;-73
2023/09/12 02:04:15;;;;;;;15.90;9.23;;;;;;;21.85;77.58;100604.13;4881100;29;20060;-73
2023/09/12 02:06:43;;;;;;;13.88;10.15;;;;;;;21.87;77.12;100604.59;4881492;29;20122;-74
2023/09/12 02:09:11;;;;;;;12.00;8.73;;;;;;;21.84;77.56;100608.06;4891711;29;20134;-73
2023/09/12 02:11:39;;;;;;;12.70;8.85;;;;;;;21.78;77.98;100598.34;4879942;29;20064;-73
2023/09/12 02:14:07;;;;;;;11.75;9.15;;;;;;;21.75;77.98;100611.84;4880761;29;20060;-73
2023/09/12 02:16:37;;;;;;;11.88;8.77;;;;;;;21.85;77.78;100609.72;4897560;29;20056;-73
2023/09/12 02:19:09;;;;;;;14.88;8.98;;;;;;;21.65;78.75;100615.09;4891800;29;20057;-73
2023/09/12 02:21:37;;;;;;;11.85;8.80;;;;;;;21.56;79.50;100606.91;4894567;29;20044;-73
2023/09/12 02:24:05;;;;;;;12.73;9.13;;;;;;;21.58;79.83;100603.75;4897063;29;20063;-73
2023/09/12 02:26:36;;;;;;;10.77;8.73;;;;;;;21.50;80.38;100615.88;4881168;29;20049;-73
2023/09/12 02:29:06;;;;;;;12.70;8.88;;;;;;;21.48;80.59;100611.47;4897069;29;20053;-74
2023/09/12 02:31:34;;;;;;;12.70;9.55;;;;;;;21.52;80.31;100607.97;4897070;29;20061;-73
2023/09/12 02:34:02;;;;;;;12.50;9.45;;;;;;;21.46;80.93;100607.44;4880012;29;20056;-73
2023/09/12 02:36:30;;;;;;;15.07;9.48;;;;;;;21.46;80.78;100604.66;4896912;29;20056;-73
2023/09/12 02:38:58;;;;;;;11.25;9.57;;;;;;;21.62;79.26;100601.91;4879941;29;20052;-74
2023/09/12 02:41:26;;;;;;;12.80;10.13;;;;;;;21.52;79.54;100611.56;4897499;29;20499;-73
2023/09/12 02:43:53;;;;;;;13.43;9.25;;;;;;;21.71;78.99;100607.34;4896560;29;20064;-73
2023/09/12 02:46:21;;;;;;;12.18;9.30;;;;;;;21.59;79.51;100608.16;4880894;29;20162;-73
2023/09/12 02:48:50;;;;;;;13.35;9.80;;;;;;;21.50;80.04;100610.31;4879393;29;20048;-74
2023/09/12 02:51:17;;;;;;;13.18;9.43;;;;;;;21.45;79.82;100609.38;4895834;29;20068;-74
2023/09/12 02:53:45;;;;;;;14.27;9.55;;;;;;;21.38;80.50;100608.38;4879854;29;20067;-73
2023/09/12 02:56:13;;;;;;;11.93;8.80;;;;;;;21.43;79.63;100606.16;4879921;29;20056;-73
2023/09/12 02:58:41;;;;;;;13.02;8.95;;;;;;;21.42;80.03;100604.53;4895707;29;20059;-73
2023/09/12 03:01:17;;;;;;;11.80;9.18;;;;;;;21.26;81.98;100612.81;4896038;29;20499;-73
2023/09/12 03:03:49;;;;;;;11.57;9.30;;;;;;;21.39;80.64;100604.41;4880219;29;20062;-73
2023/09/12 03:06:20;;;;;;;12.15;9.75;;;;;;;21.59;79.50;100605.38;4896268;29;20049;-74
2023/09/12 03:08:48;;;;;;;15.05;9.30;;;;;;;21.49;79.37;100609.50;4896489;29;20412;-74
2023/09/12 03:11:16;;;;;;;12.40;9.57;;;;;;;21.39;80.70;100599.66;4880130;29;20051;-74
2023/09/12 03:13:44;;;;;;;11.77;9.68;;;;;;;21.35;79.86;100601.53;4879534;29;20053;-73
2023/09/12 03:16:13;;;;;;;13.45;9.48;;;;;;;21.38;80.13;100606.41;4880128;29;20049;-73
2023/09/12 03:18:41;;;;;;;13.20;10.05;;;;;;;21.32;80.33;100605.84;4896832;29;20064;-73
2023/09/12 03:21:10;;;;;;;17.60;9.75;;;;;;;21.35;80.42;100598.75;4895968;29;20056;-73
2023/09/12 03:23:38;;;;;;;13.30;10.15;;;;;;;21.23;81.29;100604.34;4895907;29;20496;-73
2023/09/12 03:26:07;;;;;;;17.67;10.45;;;;;;;21.32;80.69;100605.84;4879464;29;20082;-73
2023/09/12 03:28:36;;;;;;;14.63;9.70;;;;;;;21.40;80.30;100597.72;4879991;29;20056;-73
2023/09/12 03:31:13;;;;;;;11.80;9.65;;;;;;;21.27;82.33;100603.31;4894997;29;20519;-73
2023/09/12 03:33:47;;;;;;;13.77;10.63;;;;;;;21.24;82.50;100611.53;4879979;29;20424;-73
2023/09/12 03:36:19;;;;;;;13.80;10.73;;;;;;;21.14;82.73;100598.94;4878329;29;20055;-74
2023/09/12 03:38:47;;;;;;;16.27;10.60;;;;;;;21.28;82.28;100598.56;4879477;29;20049;-73
2023/09/12 03:41:16;;;;;;;14.82;10.80;;;;;;;21.37;81.44;100601.19;4879290;29;20087;-73
2023/09/12 03:43:44;;;;;;;13.50;10.23;;;;;;;21.33;81.33;100603.88;4896814;29;20056;-73
2023/09/12 03:46:12;;;;;;;15.13;10.68;;;;;;;21.29;82.53;100597.38;4879890;29;20044;-73
2023/09/12 03:48:40;;;;;;;14.38;10.63;;;;;;;21.30;82.63;100601.78;4895043;29;20052;-73
2023/09/12 03:51:08;;;;;;;13.18;9.95;;;;;;;21.44;80.63;100596.63;4896351;29;20507;-73
2023/09/12 03:53:36;;;;;;;14.60;10.48;;;;;;;21.54;80.10;100602.84;4896027;29;20083;-73
2023/09/12 03:56:04;;;;;;;16.23;10.73;;;;;;;21.56;80.52;100611.69;4879562;29;20056;-73
2023/09/12 03:58:32;;;;;;;20.65;9.95;;;;;;;21.48;81.31;100603.13;4878686;29;20056;-74
2023/09/12 04:01:01;;;;;;;14.43;10.15;;;;;;;21.54;80.69;100613.97;4879556;29;20052;-73
2023/09/12 04:03:28;;;;;;;17.25;11.63;;;;;;;21.54;79.51;100613.97;4879265;29;20061;-74
2023/09/12 04:05:57;;;;;;;15.98;10.05;;;;;;;21.46;80.52;100602.66;4879083;29;20113;-74
2023/09/12 04:08:25;;;;;;;16.20;10.48;;;;;;;21.44;80.81;100602.22;4896264;29;20075;-74
2023/09/12 04:10:53;;;;;;;16.10;10.32;;;;;;;21.29;81.72;100602.94;4879157;29;20051;-73
2023/09/12 04:13:20;;;;;;;13.00;8.90;;;;;;;21.24;82.03;100603.19;4879158;29;20075;-73
2023/09/12 04:15:48;;;;;;;13.57;10.02;;;;;;;21.31;82.11;100603.44;4879132;29;20049;-74
2023/09/12 04:18:17;;;;;;;13.45;10.50;;;;;;;21.31;80.74;100611.78;4875214;29;20053;-73
2023/09/12 04:20:45;;;;;;;13.52;9.77;;;;;;;21.26;81.39;100603.66;4860273;29;20059;-74
2023/09/12 04:23:13;;;;;;;14.25;10.20;;;;;;;21.17;82.14;100604.59;4877858;29;20052;-73
2023/09/12 04:25:46;;;;;;;15.65;10.25;;;;;;;21.17;82.31;100604.59;4861030;29;20492;-74
2023/09/12 04:28:14;;;;;;;18.60;11.55;;;;;;;21.18;81.86;100599.84;4859879;29;20060;-74
2023/09/12 04:30:42;;;;;;;15.43;10.48;;;;;;;21.16;82.98;100610.53;4876942;29;20076;-74
2023/09/12 04:33:14;;;;;;;12.63;10.13;;;;;;;21.16;82.15;100614.13;4860945;29;20049;-74
2023/09/12 04:35:42;;;;;;;16.10;10.32;;;;;;;21.07;82.67;100617.03;4861141;29;20045;-73
2023/09/12 04:38:10;;;;;;;13.02;10.43;;;;;;;20.99;84.45;100625.50;4850060;29;20060;-74
2023/09/12 04:40:39;;;;;;;14.05;10.00;;;;;;;21.00;82.37;100627.13;4849979;29;20049;-73
2023/09/12 04:43:07;;;;;;;15.98;10.73;;;;;;;21.08;83.04;100624.22;4845014;29;20408;-73
2023/09/12 04:45:35;;;;;;;13.98;9.98;;;;;;;21.44;82.24;100621.69;4861760;29;20054;-83
2023/09/12 04:48:04;;;;;;;15.68;9.50;;;;;;;22.01;79.01;100624.44;4815681;29;20053;-83
2023/09/12 04:50:32;;;;;;;17.30;9.75;;;;;;;22.38;77.17;100634.56;4842563;29;20056;-83
2023/09/12 04:53:00;;;;;;;12.88;9.05;;;;;;;22.67;75.11;100646.44;4852123;29;20060;-83
2023/09/12 04:55:29;;;;;;;12.10;9.52;;;;;;;22.87;74.26;100637.31;4830187;29;20064;-83
2023/09/12 04:57:57;;;;;;;10.70;9.38;;;;;;;23.03;73.23;100631.69;4830117;29;20046;-83
2023/09/12 05:00:26;;;;;;;14.23;9.77;;;;;;;23.12;72.41;100634.28;4828125;29;20495;-81
2023/09/12 05:02:54;;;;;;;12.15;8.93;;;;;;;23.09;72.31;100647.81;4852114;29;20404;-84
2023/09/12 05:05:22;;;;;;;13.55;8.98;;;;;;;23.22;72.20;100640.09;4849047;29;20056;-83
2023/09/12 05:07:53;;;;;;;14.80;9.32;;;;;;;23.26;71.94;100644.97;4848896;29;20073;-83
2023/09/12 05:10:21;;;;;;;15.48;9.13;;;;;;;23.28;71.53;100637.84;4863997;29;20060;-82
2023/09/12 05:12:49;;;;;;;13.35;8.88;;;;;;;23.31;71.62;100639.13;4864279;29;20071;-83
2023/09/12 05:15:17;;;;;;;14.02;9.18;;;;;;;23.31;71.57;100648.28;4879576;29;20045;-83
2023/09/12 05:17:45;;;;;;;12.18;8.52;;;;;;;23.35;71.33;100651.97;4863050;29;20404;-83
2023/09/12 05:20:13;;;;;;;12.45;9.38;;;;;;;22.87;73.24;100649.28;4880639;29;20084;-82
2023/09/12 05:22:42;;;;;;;15.45;9.90;;;;;;;22.65;73.87;100656.34;4863856;29;20052;-83
2023/09/12 05:25:10;;;;;;;13.70;9.68;;;;;;;22.48;75.28;100651.91;4863916;29;20052;-83
2023/09/12 05:27:38;;;;;;;14.10;9.38;;;;;;;22.70;74.79;100664.44;4880589;29;20060;-83
2023/09/12 05:30:07;;;;;;;14.45;9.60;;;;;;;22.99;73.58;100653.94;4864215;29;20044;-83
2023/09/12 05:32:36;;;;;;;10.05;8.95;;;;;;;23.18;72.98;100660.75;4880389;29;20053;-83
2023/09/12 05:35:05;;;;;;;15.00;9.30;;;;;;;23.23;73.40;100661.25;4879427;29;20049;-83
2023/09/12 05:37:48;;;;;;;12.50;8.85;;;;;;;23.28;73.28;100670.50;4863943;29;20049;-83
2023/09/12 05:40:17;;;;;;;13.18;8.70;;;;;;;23.38;72.92;100675.56;4880259;29;20049;-83
2023/09/12 05:42:45;;;;;;;17.25;10.10;;;;;;;23.42;71.62;100681.22;4878953;29;20045;-83
2023/09/12 05:45:13;;;;;;;13.10;9.73;;;;;;;23.29;71.84;100667.38;4880184;29;20041;-83
2023/09/12 05:47:42;;;;;;;14.07;9.18;;;;;;;23.38;72.42;100675.56;4863614;29;20041;-83
2023/09/12 05:50:11;;;;;;;15.70;10.50;;;;;;;23.49;71.99;100681.38;4863507;29;20408;-83
2023/09/12 05:52:41;;;;;;;14.20;10.55;;;;;;;23.55;71.95;100679.09;4879336;29;20049;-83
2023/09/12 05:55:11;;;;;;;15.32;10.98;;;;;;;23.45;72.33;100672.09;4862602;29;20061;-83
2023/09/12 05:57:39;;;;;;;15.75;10.88;;;;;;;23.56;72.02;100677.94;4880018;29;20060;-83
2023/09/12 06:00:11;;;;;;;16.35;11.65;;;;;;;23.54;72.16;100672.69;4848353;29;20049;-82
2023/09/12 06:02:42;;;;;;;24.77;15.48;;;;;;;23.58;72.35;100684.75;4876023;29;20116;-82
2023/09/12 06:05:10;;;;;;;19.23;11.48;;;;;;;23.62;72.23;100679.25;4880085;29;20053;-82
2023/09/12 06:07:40;;;;;;;22.05;12.50;;;;;;;23.72;71.97;100683.44;4880089;29;20068;-83
2023/09/12 06:10:09;;;;;;;27.00;13.48;;;;;;;23.76;72.32;100690.69;4880006;29;20144;-82
2023/09/12 06:12:38;;;;;;;21.52;12.05;;;;;;;23.85;71.73;100693.28;4879123;29;20041;-82
2023/09/12 06:15:07;;;;;;;18.52;12.70;;;;;;;24.05;70.98;100693.25;4879585;29;20060;-82
2023/09/12 06:17:35;;;;;;;20.23;12.23;;;;;;;24.02;71.42;100696.78;4869341;29;20123;-82
2023/09/12 06:20:06;;;;;;;16.08;11.63;;;;;;;24.00;71.35;100691.56;4896058;29;20053;-82
2023/09/12 06:22:35;;;;;;;16.80;12.07;;;;;;;24.17;70.86;100695.09;4898815;29;20098;-83
2023/09/12 06:25:06;;;;;;;18.88;11.93;;;;;;;24.11;70.87;100700.19;4898806;29;20060;-82
2023/09/12 06:27:34;;;;;;;20.27;12.13;;;;;;;24.32;70.04;100704.56;4898713;29;20071;-82
2023/09/12 06:30:03;;;;;;;17.30;11.90;;;;;;;24.23;71.12;100702.00;4898823;29;20049;-83
2023/09/12 06:32:32;;;;;;;18.25;11.93;;;;;;;24.36;70.88;100708.25;4881419;29;20056;-83
2023/09/12 06:35:01;;;;;;;20.98;12.38;;;;;;;24.39;69.69;100706.69;4898534;29;20052;-83
2023/09/12 06:37:29;;;;;;;16.90;11.80;;;;;;;24.51;69.25;100706.50;4881881;29;20093;-83
2023/09/12 06:39:58;;;;;;;17.85;12.43;;;;;;;24.42;69.72;100708.72;4898707;29;20044;-83
2023/09/12 06:42:26;;;;;;;19.27;11.45;;;;;;;24.59;69.13;100715.00;4881265;29;20428;-83
2023/09/12 06:44:54;;;;;;;20.80;11.63;;;;;;;24.66;68.54;100713.16;4897737;29;20053;-83
2023/09/12 06:47:23;;;;;;;17.65;11.60;;;;;;;24.66;69.51;100710.34;4897661;29;20063;-84
2023/09/12 06:49:52;;;;;;;17.77;11.23;;;;;;;24.69;68.88;100711.59;4880760;29;20052;-83
2023/09/12 06:52:23;;;;;;;19.95;11.57;;;;;;;24.75;68.43;100709.28;4883171;29;20053;-83
2023/09/12 06:54:52;;;;;;;18.92;10.70;;;;;;;24.98;67.35;100711.25;4878233;29;20052;-83
2023/09/12 06:57:21;;;;;;;22.10;10.88;;;;;;;25.09;66.73;100713.03;4878408;29;20049;-83
2023/09/12 06:59:51;;;;;;;23.48;10.52;;;;;;;25.05;66.02;100712.19;4878118;29;20061;-84
2023/09/12 07:02:21;;;;;;;13.65;9.68;;;;;;;25.22;65.84;100713.63;4878194;29;20060;-83
2023/09/12 07:05:04;;;;;;;16.10;10.80;;;;;;;25.34;66.08;100712.59;4878504;29;20140;-83
2023/09/12 07:07:34;;;;;;;15.73;10.43;;;;;;;25.40;65.50;100715.88;4878381;29;20053;-84
2023/09/12 07:10:07;;;;;;;15.43;10.32;;;;;;;25.36;65.34;100723.41;4878327;29;20053;-83
2023/09/12 07:12:53;;;;;;;13.82;10.27;;;;;;;25.36;65.92;100720.59;4878350;29;20048;-83
2023/09/12 07:15:22;;;;;;;14.77;10.10;;;;;;;25.42;66.45;100730.28;4878262;29;20056;-83
2023/09/12 07:17:51;;;;;;;19.23;11.43;;;;;;;25.43;66.70;100729.13;4878346;29;20048;-82
2023/09/12 07:20:20;;;;;;;20.15;11.20;;;;;;;25.39;67.77;100717.06;4877125;29;20053;-83
2023/09/12 07:22:48;;;;;;;16.88;10.82;;;;;;;25.55;66.85;100721.72;4878535;29;20064;-83
2023/09/12 07:25:18;;;;;;;15.75;11.75;;;;;;;25.71;66.37;100730.69;4878609;29;20064;-84
2023/09/12 07:27:47;;;;;;;15.38;10.68;;;;;;;25.82;64.36;100724.44;4878586;29;20049;-84
2023/09/12 07:30:17;;;;;;;15.68;10.80;;;;;;;25.94;64.11;100731.78;4878613;29;20049;-83
2023/09/12 07:32:47;;;;;;;15.85;10.32;;;;;;;25.96;64.49;100732.22;4876606;29;20056;-84
2023/09/12 07:35:15;;;;;;;15.80;9.95;;;;;;;26.06;62.39;100730.72;4878439;29;20057;-85
2023/09/12 07:37:43;;;;;;;13.55;9.77;;;;;;;26.15;60.65;100731.22;4878856;29;20053;-85
2023/09/12 07:40:12;;;;;;;15.05;9.80;;;;;;;26.13;58.93;100739.19;4878804;29;20061;-85
2023/09/12 07:42:41;;;;;;;22.00;10.30;;;;;;;26.25;59.67;100732.56;4876190;29;20049;-85
2023/09/12 07:45:10;;;;;;;14.00;9.73;;;;;;;26.34;58.84;100737.84;4875732;29;20056;-84
2023/09/12 07:47:38;;;;;;;20.73;10.77;;;;;;;26.49;59.01;100733.97;4856080;29;20057;-84
2023/09/12 07:50:10;;;;;;;17.15;8.93;;;;;;;26.48;59.00;100735.19;4871542;29;20045;-85
2023/09/12 07:52:45;;;;;;;16.60;10.27;;;;;;;26.52;58.47;100743.63;4857513;29;20069;-85
2023/09/12 07:55:14;;;;;;;20.05;8.90;;;;;;;26.56;57.52;100742.47;4873561;29;20382;-85
2023/09/12 07:57:45;;;;;;;12.93;8.82;;;;;;;26.42;56.78;100748.75;4861828;29;20053;-85
2023/09/12 08:00:17;;;;;;;;;;;;;;;26.28;57.18;100748.59;4872800;29;20404;-85
2023/09/12 08:02:47;;;;;;;21.17;10.25;;;;;;;26.17;58.33;100759.69;4886682;29;19971;-85
2023/09/12 08:05:16;;;;;;;17.45;8.80;;;;;;;26.28;58.60;100762.63;4871593;29;20076;-84
2023/09/12 08:07:46;;;;;;;13.55;9.57;;;;;;;26.29;58.07;100767.03;4853741;29;20050;-86
2023/09/12 08:10:15;;;;;;;16.50;10.55;;;;;;;26.14;58.02;100761.25;4871276;29;20079;-85
2023/09/12 08:12:43;;;;;;;18.35;10.45;;;;;;;26.15;58.29;100753.66;4873688;29;20056;-86
2023/09/12 08:15:12;;;;;;;15.80;9.73;;;;;;;26.04;58.78;100759.13;4876563;29;20057;-86
2023/09/12 08:17:40;;;;;;;16.13;10.32;;;;;;;25.94;57.79;100760.63;4878062;29;20075;-85
2023/09/12 08:20:09;;;;;;;12.85;10.00;;;;;;;25.97;57.71;100765.47;4877391;29;20057;-83
2023/09/12 08:22:38;;;;;;;14.73;9.60;;;;;;;26.12;58.37;100765.63;4879373;29;20404;-83
2023/09/12 08:25:12;;;;;;;12.85;9.48;;;;;;;26.30;57.61;100772.28;4874583;29;20386;-87
2023/09/12 08:27:44;;;;;;;11.52;8.35;;;;;;;26.45;56.49;100768.81;4877380;29;20047;-86
2023/09/12 08:30:14;;;;;;;18.17;9.93;;;;;;;26.51;56.51;100768.09;4880364;29;20064;-86
2023/09/12 08:32:45;;;;;;;14.55;8.43;;;;;;;26.63;56.12;100777.41;4879362;29;20080;-88
2023/09/12 08:35:16;;;;;;;13.63;8.73;;;;;;;26.68;55.49;100772.25;4878521;29;20056;-86
2023/09/12 08:37:45;;;;;;;14.65;9.50;;;;;;;26.82;56.40;100767.94;4879361;29;20049;-86
2023/09/12 08:40:15;;;;;;;12.00;8.43;;;;;;;26.88;55.29;100760.78;4889131;29;20060;-86
2023/09/12 08:42:45;;;;;;;13.15;8.45;;;;;;;27.10;54.80;100773.03;4879976;29;20053;-87
2023/09/12 08:45:15;;;;;;;16.60;9.45;;;;;;;27.18;55.38;100773.06;4881925;29;20067;-86
2023/09/12 08:47:46;;;;;;;13.63;8.27;;;;;;;27.24;53.62;100777.13;4896547;29;20072;-87
2023/09/12 08:50:16;;;;;;;16.23;9.20;;;;;;;27.28;52.99;100782.78;4867258;29;20064;-87
2023/09/12 08:52:46;;;;;;;10.13;8.00;;;;;;;27.17;52.73;100771.47;4882340;29;20053;-88
2023/09/12 08:55:35;;;;;;;11.40;8.10;;;;;;;27.17;53.43;100777.09;4884129;29;20045;-87
2023/09/12 08:58:05;;;;;;;14.73;8.73;;;;;;;27.20;53.14;100777.09;4855714;29;20496;-90
2023/09/12 09:00:37;;;;;;;13.02;8.43;;;;;;;27.18;53.65;100770.25;4867026;29;20526;-87
2023/09/12 09:03:06;;;;;;;12.02;8.30;;;;;;;27.05;53.09;100759.34;4883523;29;20049;-87
2023/09/12 09:05:37;;;;;;;11.75;8.32;;;;;;;27.25;53.74;100778.72;4879408;29;20055;-88
2023/09/12 09:08:07;;;;;;;10.65;8.45;;;;;;;27.49;54.59;100770.84;4886087;29;20403;-89
2023/09/12 09:10:54;;;;;;;13.68;9.10;;;;;;;27.36;53.97;100765.56;4897699;29;20067;-88
2023/09/12 09:13:22;;;;;;;13.73;9.75;;;;;;;27.47;53.89;100767.66;4880629;29;20408;-89
2023/09/12 09:16:15;;;;;;;12.05;8.90;;;;;;;27.55;54.58;100769.28;4898089;29;20767;-88
2023/09/12 09:19:09;;;;;;;12.23;9.13;;;;;;;27.72;53.98;100764.19;4863236;29;20060;-89
2023/09/12 09:21:40;;;;;;;10.57;8.38;;;;;;;27.57;52.20;100764.06;4876724;29;20060;-89
2023/09/12 09:24:11;;;;;;;12.30;9.13;;;;;;;27.71;53.10;100769.00;4859329;29;20053;-87
2023/09/12 09:26:43;;;;;;;12.38;9.80;;;;;;;27.67;53.21;100770.19;4884482;29;20080;-88
2023/09/12 09:29:21;;;;;;;10.93;8.35;;;;;;;27.77;53.36;100763.81;4871506;29;20053;-88
2023/09/12 09:31:52;;;;;;;12.32;8.90;;;;;;;27.80;52.92;100762.22;4861192;29;20060;-88
2023/09/12 09:34:23;;;;;;;12.25;8.95;;;;;;;27.84;52.86;100766.66;4885912;29;20048;-88
2023/09/12 09:36:57;;;;;;;12.60;9.25;;;;;;;27.90;52.55;100755.81;4897165;29;20052;-88
2023/09/12 09:39:31;;;;;;;11.50;8.88;;;;;;;27.87;52.46;100754.59;4896286;29;20059;-88
2023/09/12 09:42:00;;;;;;;11.75;8.15;;;;;;;28.00;52.54;100740.97;4885398;29;20051;-88
2023/09/12 09:44:30;;;;;;;18.17;8.95;;;;;;;28.23;52.37;100737.06;4897737;29;20064;-93
2023/09/12 09:47:02;;;;;;;17.55;8.90;;;;;;;28.35;51.60;100746.34;4860511;29;20056;-90
2023/09/12 09:49:34;;;;;;;20.42;10.27;;;;;;;28.27;52.78;100742.69;4888749;29;20061;-90
2023/09/12 09:52:06;;;;;;;14.45;8.98;;;;;;;28.39;51.79;100747.94;4875043;29;20056;-87
2023/09/12 09:54:45;;;;;;;13.75;8.63;;;;;;;28.34;51.93;100748.31;4893554;29;20048;-89
2023/09/12 09:57:14;;;;;;;13.73;10.27;;;;;;;28.23;51.26;100741.88;4897961;29;20488;-87
2023/09/12 09:59:50;;;;;;;14.25;9.63;;;;;;;28.40;52.19;100737.50;4895328;29;20052;-89
2023/09/12 10:02:22;;;;;;;15.52;9.55;;;;;;;28.48;51.14;100729.88;4862990;29;20069;-89
2023/09/12 10:04:53;;;;;;;13.95;9.45;;;;;;;28.51;52.66;100743.13;4879104;29;20045;-89
2023/09/12 10:07:25;;;;;;;;;;;;;;;28.66;51.32;100738.31;4883163;29;20067;-88
2023/09/12 10:09:54;;;;;;;11.10;9.55;;;;;;;28.77;50.29;100732.66;4880538;29;19938;-89
2023/09/12 10:12:24;;;;;;;16.85;10.48;;;;;;;28.73;51.85;100738.31;4881486;29;20052;-89
2023/09/12 10:14:53;;;;;;;10.85;8.98;;;;;;;28.69;51.56;100743.16;4877817;29;20444;-88
2023/09/12 10:17:26;;;;;;;14.20;9.55;;;;;;;28.74;51.19;100742.72;4893490;29;20052;-88
2023/09/12 10:19:59;;;;;;;16.00;9.63;;;;;;;28.99;50.61;100739.13;4845772;29;20394;-88
2023/09/12 10:22:31;;;;;;;;;;;;;;;29.03;50.29;100739.13;4863426;29;20060;-89
2023/09/12 10:25:00;;;;;;;13.18;9.65;;;;;;;29.12;49.85;100735.91;4855494;29;19923;-90
2023/09/12 10:27:31;;;;;;;13.93;8.27;;;;;;;29.07;49.47;100735.09;4878640;29;20409;-89
2023/09/12 10:30:00;;;;;;;17.58;9.30;;;;;;;29.16;49.65;100720.59;4861686;29;20053;-90
2023/09/12 10:32:32;;;;;;;13.70;9.70;;;;;;;29.29;50.06;100731.44;4857773;29;20072;-89
2023/09/12 10:35:03;;;;;;;15.40;10.15;;;;;;;29.41;49.57;100725.34;4861731;29;20056;-90
2023/09/12 10:37:35;;;;;;;13.80;10.50;;;;;;;29.47;49.40;100728.56;4827573;29;20049;-91
2023/09/12 10:40:07;;;;;;;15.13;11.20;;;;;;;29.50;49.26;100727.78;4861199;29;20060;-89
2023/09/12 10:42:36;;;;;;;11.95;8.88;;;;;;;29.63;48.86;100730.94;4842298;29;20049;-88
2023/09/12 10:45:08;;;;;;;18.25;10.07;;;;;;;29.69;49.08;100723.69;4840404;29;20076;-90
2023/09/12 10:47:38;;;;;;;11.45;9.48;;;;;;;29.66;48.68;100726.50;4846162;29;20052;-89
2023/09/12 10:50:08;;;;;;;14.45;9.75;;;;;;;29.75;47.47;100732.50;4873223;29;20050;-90
2023/09/12 10:52:39;;;;;;;14.13;10.02;;;;;;;29.76;47.01;100737.75;4830440;29;20072;-89
2023/09/12 10:55:16;;;;;;;12.98;9.75;;;;;;;29.87;48.02;100739.72;4876726;29;20060;-91
2023/09/12 10:58:04;;;;;;;12.02;9.45;;;;;;;30.01;48.40;100725.53;4845755;29;20064;-90
2023/09/12 11:00:33;;;;;;;17.73;10.85;;;;;;;29.99;48.47;100722.31;4833115;29;20060;-90
2023/09/12 11:03:37;;;;;;;14.40;10.57;;;;;;;30.09;47.62;100719.84;4870514;29;20056;-88
2023/09/12 11:06:21;;;;;;;10.88;9.48;;;;;;;30.15;47.51;100721.06;4846298;29;20053;-90
2023/09/12 11:09:22;;;;;;;17.15;11.88;;;;;;;30.01;48.00;100719.88;4845065;29;20057;-90
2023/09/12 11:11:57;;;;;;;15.85;10.43;;;;;;;30.03;48.09;100714.66;4844707;29;20055;-90
2023/09/12 11:14:26;;;;;;;16.98;11.77;;;;;;;30.06;47.74;100713.03;4873699;29;20041;-90
2023/09/12 11:17:07;;;;;;;15.65;11.98;;;;;;;30.17;48.16;100708.13;4872658;29;20068;-89
2023/09/12 11:19:52;;;;;;;19.08;13.25;;;;;;;30.34;48.10;100704.78;4856957;29;20412;-90
2023/09/12 11:22:26;;;;;;;15.25;11.85;;;;;;;30.50;48.99;100699.41;4870210;29;20060;-91
2023/09/12 11:25:02;;;;;;;17.58;12.52;;;;;;;30.60;48.41;100705.38;4879581;29;20048;-90
2023/09/12 11:27:45;;;;;;;14.07;11.10;;;;;;;30.74;47.29;100710.94;4895396;29;20060;-90
2023/09/12 11:30:14;;;;;;;17.35;13.10;;;;;;;30.82;45.73;100708.84;4879486;29;20057;-93